sensor_id;sensor_type;location;lat;lon;timestamp;P1;durP1;ratioP1;P2;durP2;ratioP2
45392;SDS011;31129;44.810;10.334;2022-09-17T00:00:45;8.68;;;2.00;;
45392;SDS011;31129;44.810;10.334;2022-09-17T00:03:11;7.80;;;1.35;;
45392;SDS011;31129;44.810;10.334;2022-09-17T00:05:37;1.65;;;0.90;;
45392;SDS011;31129;44.810;10.334;2022-09-17T00:08:03;5.57;;;1.05;;
45392;SDS011;31129;44.810;10.334;2022-09-17T00:10:29;2.72;;;0.98;;
45392;SDS011;31129;44.810;10.334;2022-09-17T00:12:55;6.03;;;1.08;;
45392;SDS011;31129;44.810;10.334;2022-09-17T00:15:20;3.38;;;0.88;;
45392;SDS011;31129;44.810;10.334;2022-09-17T00:17:46;6.93;;;1.33;;
45392;SDS011;31129;44.810;10.334;2022-09-17T00:20:12;6.65;;;1.13;;
45392;SDS011;31129;44.810;10.334;2022-09-17T00:22:37;4.95;;;1.60;;
45392;SDS011;31129;44.810;10.334;2022-09-17T00:25:04;4.15;;;1.00;;
45392;SDS011;31129;44.810;10.334;2022-09-17T00:27:32;8.55;;;1.40;;
45392;SDS011;31129;44.810;10.334;2022-09-17T00:29:57;5.95;;;1.45;;
45392;SDS011;31129;44.810;10.334;2022-09-17T00:32:23;7.28;;;1.40;;
45392;SDS011;31129;44.810;10.334;2022-09-17T00:34:49;2.80;;;1.13;;
45392;SDS011;31129;44.810;10.334;2022-09-17T00:37:19;4.47;;;1.40;;
45392;SDS011;31129;44.810;10.334;2022-09-17T00:39:45;5.82;;;1.27;;
45392;SDS011;31129;44.810;10.334;2022-09-17T00:42:11;5.38;;;1.27;;
45392;SDS011;31129;44.810;10.334;2022-09-17T00:49:40;6.60;;;1.38;;
45392;SDS011;31129;44.810;10.334;2022-09-17T00:52:10;6.45;;;1.13;;
45392;SDS011;31129;44.810;10.334;2022-09-17T00:54:40;6.65;;;0.90;;
45392;SDS011;31129;44.810;10.334;2022-09-17T00:57:08;6.25;;;0.90;;
45392;SDS011;31129;44.810;10.334;2022-09-17T00:59:34;5.35;;;1.42;;
45392;SDS011;31129;44.810;10.334;2022-09-17T01:01:59;8.80;;;1.42;;
45392;SDS011;31129;44.810;10.334;2022-09-17T01:04:27;5.90;;;1.13;;
45392;SDS011;31129;44.810;10.334;2022-09-17T01:07:07;3.50;;;1.00;;
45392;SDS011;31129;44.810;10.334;2022-09-17T01:23:50;4.13;;;1.40;;
45392;SDS011;31129;44.810;10.334;2022-09-17T01:32:32;4.47;;;0.80;;
45392;SDS011;31129;44.810;10.334;2022-09-17T01:38:03;4.97;;;0.98;;
45392;SDS011;31129;44.810;10.334;2022-09-17T01:40:51;4.65;;;0.95;;
45392;SDS011;31129;44.810;10.334;2022-09-17T01:43:25;2.38;;;0.70;;
45392;SDS011;31129;44.810;10.334;2022-09-17T01:46:16;4.45;;;0.70;;
45392;SDS011;31129;44.810;10.334;2022-09-17T01:48:52;5.85;;;0.80;;
45392;SDS011;31129;44.810;10.334;2022-09-17T01:51:25;4.63;;;0.82;;
45392;SDS011;31129;44.810;10.334;2022-09-17T01:53:57;7.10;;;0.88;;
45392;SDS011;31129;44.810;10.334;2022-09-17T01:56:28;11.48;;;1.40;;
45392;SDS011;31129;44.810;10.334;2022-09-17T01:59:18;9.43;;;1.00;;
45392;SDS011;31129;44.810;10.334;2022-09-17T02:01:56;4.10;;;0.88;;
45392;SDS011;31129;44.810;10.334;2022-09-17T02:04:28;5.60;;;0.90;;
45392;SDS011;31129;44.810;10.334;2022-09-17T02:06:59;9.73;;;1.17;;
45392;SDS011;31129;44.810;10.334;2022-09-17T02:09:39;5.68;;;2.38;;
45392;SDS011;31129;44.810;10.334;2022-09-17T02:12:10;6.88;;;1.08;;
45392;SDS011;31129;44.810;10.334;2022-09-17T02:14:44;4.68;;;2.13;;
45392;SDS011;31129;44.810;10.334;2022-09-17T02:17:48;5.82;;;1.83;;
45392;SDS011;31129;44.810;10.334;2022-09-17T02:20:18;6.95;;;1.20;;
45392;SDS011;31129;44.810;10.334;2022-09-17T02:22:56;6.70;;;0.98;;
45392;SDS011;31129;44.810;10.334;2022-09-17T02:25:35;7.47;;;1.00;;
45392;SDS011;31129;44.810;10.334;2022-09-17T02:30:43;5.25;;;1.20;;
45392;SDS011;31129;44.810;10.334;2022-09-17T02:33:10;9.18;;;1.15;;
45392;SDS011;31129;44.810;10.334;2022-09-17T02:35:37;3.83;;;0.90;;
45392;SDS011;31129;44.810;10.334;2022-09-17T02:38:03;5.47;;;1.05;;
45392;SDS011;31129;44.810;10.334;2022-09-17T02:40:30;6.60;;;1.00;;
45392;SDS011;31129;44.810;10.334;2022-09-17T02:46:13;7.65;;;1.20;;
45392;SDS011;31129;44.810;10.334;2022-09-17T02:48:55;8.63;;;1.60;;
45392;SDS011;31129;44.810;10.334;2022-09-17T02:54:35;13.82;;;1.95;;
45392;SDS011;31129;44.810;10.334;2022-09-17T02:57:14;3.90;;;1.20;;
45392;SDS011;31129;44.810;10.334;2022-09-17T03:00:06;7.72;;;0.95;;
45392;SDS011;31129;44.810;10.334;2022-09-17T03:05:07;4.75;;;1.20;;
45392;SDS011;31129;44.810;10.334;2022-09-17T03:07:34;8.70;;;1.30;;
45392;SDS011;31129;44.810;10.334;2022-09-17T03:10:00;7.43;;;1.50;;
45392;SDS011;31129;44.810;10.334;2022-09-17T03:12:26;12.88;;;1.83;;
45392;SDS011;31129;44.810;10.334;2022-09-17T03:14:51;11.43;;;1.40;;
45392;SDS011;31129;44.810;10.334;2022-09-17T03:17:17;6.13;;;1.20;;
45392;SDS011;31129;44.810;10.334;2022-09-17T03:19:42;10.52;;;1.42;;
45392;SDS011;31129;44.810;10.334;2022-09-17T03:22:08;7.38;;;1.50;;
45392;SDS011;31129;44.810;10.334;2022-09-17T03:24:34;7.43;;;1.33;;
45392;SDS011;31129;44.810;10.334;2022-09-17T03:26:59;10.55;;;1.60;;
45392;SDS011;31129;44.810;10.334;2022-09-17T03:29:24;12.00;;;2.10;;
45392;SDS011;31129;44.810;10.334;2022-09-17T03:31:50;14.65;;;2.47;;
45392;SDS011;31129;44.810;10.334;2022-09-17T03:34:15;9.65;;;1.42;;
45392;SDS011;31129;44.810;10.334;2022-09-17T03:36:41;10.60;;;2.55;;
45392;SDS011;31129;44.810;10.334;2022-09-17T03:39:07;11.70;;;2.75;;
45392;SDS011;31129;44.810;10.334;2022-09-17T03:41:32;10.63;;;2.80;;
45392;SDS011;31129;44.810;10.334;2022-09-17T03:43:57;11.25;;;2.55;;
45392;SDS011;31129;44.810;10.334;2022-09-17T03:46:23;10.45;;;2.20;;
45392;SDS011;31129;44.810;10.334;2022-09-17T03:48:48;8.93;;;1.60;;
45392;SDS011;31129;44.810;10.334;2022-09-17T03:51:14;7.72;;;1.98;;
45392;SDS011;31129;44.810;10.334;2022-09-17T03:53:39;6.22;;;1.35;;
45392;SDS011;31129;44.810;10.334;2022-09-17T03:56:05;7.53;;;1.75;;
45392;SDS011;31129;44.810;10.334;2022-09-17T03:58:31;6.72;;;1.65;;
45392;SDS011;31129;44.810;10.334;2022-09-17T04:00:57;6.25;;;1.23;;
45392;SDS011;31129;44.810;10.334;2022-09-17T04:03:23;3.28;;;1.20;;
45392;SDS011;31129;44.810;10.334;2022-09-17T04:05:49;6.60;;;1.30;;
45392;SDS011;31129;44.810;10.334;2022-09-17T04:08:15;8.30;;;1.20;;
45392;SDS011;31129;44.810;10.334;2022-09-17T04:10:41;7.72;;;1.35;;
45392;SDS011;31129;44.810;10.334;2022-09-17T04:13:08;2.60;;;1.23;;
45392;SDS011;31129;44.810;10.334;2022-09-17T04:15:34;4.00;;;0.82;;
45392;SDS011;31129;44.810;10.334;2022-09-17T04:18:00;2.75;;;0.70;;
45392;SDS011;31129;44.810;10.334;2022-09-17T04:20:25;3.70;;;0.93;;
45392;SDS011;31129;44.810;10.334;2022-09-17T04:22:51;5.07;;;0.85;;
45392;SDS011;31129;44.810;10.334;2022-09-17T04:25:17;1.65;;;0.60;;
45392;SDS011;31129;44.810;10.334;2022-09-17T04:27:43;1.48;;;0.57;;
45392;SDS011;31129;44.810;10.334;2022-09-17T04:30:10;3.78;;;0.93;;
45392;SDS011;31129;44.810;10.334;2022-09-17T04:32:36;7.22;;;0.80;;
45392;SDS011;31129;44.810;10.334;2022-09-17T04:35:02;1.98;;;0.60;;
45392;SDS011;31129;44.810;10.334;2022-09-17T04:37:28;2.72;;;0.80;;
45392;SDS011;31129;44.810;10.334;2022-09-17T04:39:54;2.97;;;0.60;;
45392;SDS011;31129;44.810;10.334;2022-09-17T04:42:19;8.07;;;0.82;;
45392;SDS011;31129;44.810;10.334;2022-09-17T04:44:44;1.83;;;0.63;;
45392;SDS011;31129;44.810;10.334;2022-09-17T04:47:13;1.17;;;0.75;;
45392;SDS011;31129;44.810;10.334;2022-09-17T04:49:38;1.13;;;0.80;;
45392;SDS011;31129;44.810;10.334;2022-09-17T04:52:04;4.45;;;0.90;;
45392;SDS011;31129;44.810;10.334;2022-09-17T04:54:29;2.28;;;0.77;;
45392;SDS011;31129;44.810;10.334;2022-09-17T04:56:55;3.25;;;1.00;;
45392;SDS011;31129;44.810;10.334;2022-09-17T04:59:20;2.15;;;1.02;;
45392;SDS011;31129;44.810;10.334;2022-09-17T05:01:46;1.88;;;0.75;;
45392;SDS011;31129;44.810;10.334;2022-09-17T05:04:11;1.33;;;0.60;;
45392;SDS011;31129;44.810;10.334;2022-09-17T05:06:37;3.00;;;0.73;;
45392;SDS011;31129;44.810;10.334;2022-09-17T05:09:02;3.05;;;0.60;;
45392;SDS011;31129;44.810;10.334;2022-09-17T05:11:28;4.90;;;1.20;;
45392;SDS011;31129;44.810;10.334;2022-09-17T05:13:53;1.33;;;0.70;;
45392;SDS011;31129;44.810;10.334;2022-09-17T05:16:19;2.95;;;0.80;;
45392;SDS011;31129;44.810;10.334;2022-09-17T05:18:45;6.30;;;1.00;;
45392;SDS011;31129;44.810;10.334;2022-09-17T05:21:10;1.80;;;0.70;;
45392;SDS011;31129;44.810;10.334;2022-09-17T05:23:36;5.93;;;0.82;;
45392;SDS011;31129;44.810;10.334;2022-09-17T05:26:01;4.70;;;1.05;;
45392;SDS011;31129;44.810;10.334;2022-09-17T05:28:27;2.03;;;0.95;;
45392;SDS011;31129;44.810;10.334;2022-09-17T05:30:53;3.80;;;0.90;;
45392;SDS011;31129;44.810;10.334;2022-09-17T05:33:18;4.55;;;1.20;;
45392;SDS011;31129;44.810;10.334;2022-09-17T05:35:44;2.53;;;0.75;;
45392;SDS011;31129;44.810;10.334;2022-09-17T05:38:10;3.63;;;0.98;;
45392;SDS011;31129;44.810;10.334;2022-09-17T05:40:35;1.90;;;0.65;;
45392;SDS011;31129;44.810;10.334;2022-09-17T05:43:04;3.05;;;1.55;;
45392;SDS011;31129;44.810;10.334;2022-09-17T05:45:34;2.13;;;0.73;;
45392;SDS011;31129;44.810;10.334;2022-09-17T05:48:00;2.13;;;0.60;;
45392;SDS011;31129;44.810;10.334;2022-09-17T05:50:27;2.85;;;0.80;;
45392;SDS011;31129;44.810;10.334;2022-09-17T05:52:53;3.53;;;0.50;;
45392;SDS011;31129;44.810;10.334;2022-09-17T05:55:19;2.97;;;0.60;;
45392;SDS011;31129;44.810;10.334;2022-09-17T05:57:50;0.88;;;0.60;;
45392;SDS011;31129;44.810;10.334;2022-09-17T06:00:15;1.42;;;0.65;;
45392;SDS011;31129;44.810;10.334;2022-09-17T06:02:41;4.60;;;0.60;;
45392;SDS011;31129;44.810;10.334;2022-09-17T06:05:07;0.40;;;0.32;;
45392;SDS011;31129;44.810;10.334;2022-09-17T06:07:36;0.65;;;0.40;;
45392;SDS011;31129;44.810;10.334;2022-09-17T06:10:03;0.95;;;0.60;;
45392;SDS011;31129;44.810;10.334;2022-09-17T06:12:30;1.58;;;0.75;;
45392;SDS011;31129;44.810;10.334;2022-09-17T06:14:56;3.72;;;0.82;;
45392;SDS011;31129;44.810;10.334;2022-09-17T06:17:21;3.08;;;0.50;;
45392;SDS011;31129;44.810;10.334;2022-09-17T06:19:47;1.88;;;0.70;;
45392;SDS011;31129;44.810;10.334;2022-09-17T06:22:12;1.63;;;0.50;;
45392;SDS011;31129;44.810;10.334;2022-09-17T06:24:38;3.47;;;0.85;;
45392;SDS011;31129;44.810;10.334;2022-09-17T06:27:03;2.83;;;0.52;;
45392;SDS011;31129;44.810;10.334;2022-09-17T06:29:29;0.60;;;0.52;;
45392;SDS011;31129;44.810;10.334;2022-09-17T06:31:54;1.67;;;0.50;;
45392;SDS011;31129;44.810;10.334;2022-09-17T06:34:20;2.42;;;0.30;;
45392;SDS011;31129;44.810;10.334;2022-09-17T06:36:47;3.83;;;0.60;;
45392;SDS011;31129;44.810;10.334;2022-09-17T06:39:13;1.40;;;0.60;;
45392;SDS011;31129;44.810;10.334;2022-09-17T06:41:42;2.50;;;0.43;;
45392;SDS011;31129;44.810;10.334;2022-09-17T06:44:07;1.30;;;0.38;;
45392;SDS011;31129;44.810;10.334;2022-09-17T06:46:33;5.63;;;0.38;;
45392;SDS011;31129;44.810;10.334;2022-09-17T06:48:58;1.90;;;0.60;;
45392;SDS011;31129;44.810;10.334;2022-09-17T06:51:24;0.63;;;0.40;;
45392;SDS011;31129;44.810;10.334;2022-09-17T06:53:49;0.55;;;0.30;;
45392;SDS011;31129;44.810;10.334;2022-09-17T06:56:15;1.02;;;0.40;;
45392;SDS011;31129;44.810;10.334;2022-09-17T06:58:43;1.10;;;0.30;;
45392;SDS011;31129;44.810;10.334;2022-09-17T07:01:09;0.90;;;0.40;;
45392;SDS011;31129;44.810;10.334;2022-09-17T07:03:36;1.05;;;0.30;;
45392;SDS011;31129;44.810;10.334;2022-09-17T07:06:02;0.90;;;0.40;;
45392;SDS011;31129;44.810;10.334;2022-09-17T07:08:30;0.65;;;0.47;;
45392;SDS011;31129;44.810;10.334;2022-09-17T07:10:58;0.40;;;0.40;;
45392;SDS011;31129;44.810;10.334;2022-09-17T07:13:24;2.83;;;0.50;;
45392;SDS011;31129;44.810;10.334;2022-09-17T07:18:19;1.73;;;0.38;;
45392;SDS011;31129;44.810;10.334;2022-09-17T07:21:06;2.53;;;0.40;;
45392;SDS011;31129;44.810;10.334;2022-09-17T07:23:34;0.32;;;0.32;;
45392;SDS011;31129;44.810;10.334;2022-09-17T07:26:02;1.38;;;0.50;;
45392;SDS011;31129;44.810;10.334;2022-09-17T07:28:29;1.00;;;0.32;;
45392;SDS011;31129;44.810;10.334;2022-09-17T07:30:55;0.55;;;0.30;;
45392;SDS011;31129;44.810;10.334;2022-09-17T07:33:23;1.08;;;0.47;;
45392;SDS011;31129;44.810;10.334;2022-09-17T07:35:59;6.60;;;0.60;;
45392;SDS011;31129;44.810;10.334;2022-09-17T07:38:27;1.00;;;0.45;;
45392;SDS011;31129;44.810;10.334;2022-09-17T07:40:58;1.23;;;0.43;;
45392;SDS011;31129;44.810;10.334;2022-09-17T07:43:28;0.40;;;0.40;;
45392;SDS011;31129;44.810;10.334;2022-09-17T07:45:57;0.73;;;0.32;;
45392;SDS011;31129;44.810;10.334;2022-09-17T07:48:23;0.57;;;0.37;;
45392;SDS011;31129;44.810;10.334;2022-09-17T07:50:50;0.50;;;0.30;;
45392;SDS011;31129;44.810;10.334;2022-09-17T07:53:15;2.15;;;0.40;;
45392;SDS011;31129;44.810;10.334;2022-09-17T07:55:40;1.90;;;0.70;;
45392;SDS011;31129;44.810;10.334;2022-09-17T07:58:06;1.00;;;0.50;;
45392;SDS011;31129;44.810;10.334;2022-09-17T08:00:32;1.02;;;0.40;;
45392;SDS011;31129;44.810;10.334;2022-09-17T08:02:58;1.45;;;0.40;;
45392;SDS011;31129;44.810;10.334;2022-09-17T08:05:24;1.95;;;0.65;;
45392;SDS011;31129;44.810;10.334;2022-09-17T08:07:50;3.40;;;0.70;;
45392;SDS011;31129;44.810;10.334;2022-09-17T08:10:16;0.77;;;0.50;;
45392;SDS011;31129;44.810;10.334;2022-09-17T08:12:49;2.03;;;0.55;;
45392;SDS011;31129;44.810;10.334;2022-09-17T08:15:16;1.33;;;0.80;;
45392;SDS011;31129;44.810;10.334;2022-09-17T08:17:43;1.70;;;0.40;;
45392;SDS011;31129;44.810;10.334;2022-09-17T08:20:08;3.35;;;0.73;;
45392;SDS011;31129;44.810;10.334;2022-09-17T08:22:34;0.70;;;0.47;;
45392;SDS011;31129;44.810;10.334;2022-09-17T08:25:00;2.33;;;0.40;;
45392;SDS011;31129;44.810;10.334;2022-09-17T08:27:26;11.30;;;0.85;;
45392;SDS011;31129;44.810;10.334;2022-09-17T08:29:51;2.85;;;0.60;;
45392;SDS011;31129;44.810;10.334;2022-09-17T08:32:17;1.00;;;0.50;;
45392;SDS011;31129;44.810;10.334;2022-09-17T08:34:42;9.57;;;0.70;;
45392;SDS011;31129;44.810;10.334;2022-09-17T08:37:07;4.38;;;0.40;;
45392;SDS011;31129;44.810;10.334;2022-09-17T08:39:33;3.42;;;0.50;;
45392;SDS011;31129;44.810;10.334;2022-09-17T08:45:08;0.25;;;0.25;;
45392;SDS011;31129;44.810;10.334;2022-09-17T08:47:38;5.07;;;0.82;;
45392;SDS011;31129;44.810;10.334;2022-09-17T08:50:14;1.55;;;0.35;;
45392;SDS011;31129;44.810;10.334;2022-09-17T09:06:48;0.68;;;0.55;;
45392;SDS011;31129;44.810;10.334;2022-09-17T09:09:20;1.25;;;0.38;;
45392;SDS011;31129;44.810;10.334;2022-09-17T09:11:58;1.05;;;0.43;;
45392;SDS011;31129;44.810;10.334;2022-09-17T09:14:29;2.05;;;0.50;;
45392;SDS011;31129;44.810;10.334;2022-09-17T09:17:00;1.70;;;0.60;;
45392;SDS011;31129;44.810;10.334;2022-09-17T09:19:32;0.93;;;0.32;;
45392;SDS011;31129;44.810;10.334;2022-09-17T09:22:13;3.10;;;0.30;;
45392;SDS011;31129;44.810;10.334;2022-09-17T09:24:46;2.92;;;0.95;;
45392;SDS011;31129;44.810;10.334;2022-09-17T09:33:26;1.30;;;0.40;;
45392;SDS011;31129;44.810;10.334;2022-09-17T09:35:54;2.28;;;0.30;;
45392;SDS011;31129;44.810;10.334;2022-09-17T09:41:09;1.33;;;0.30;;
45392;SDS011;31129;44.810;10.334;2022-09-17T09:51:53;0.35;;;0.30;;
45392;SDS011;31129;44.810;10.334;2022-09-17T09:57:11;0.35;;;0.35;;
45392;SDS011;31129;44.810;10.334;2022-09-17T09:59:39;4.00;;;0.80;;
45392;SDS011;31129;44.810;10.334;2022-09-17T10:02:05;0.55;;;0.30;;
45392;SDS011;31129;44.810;10.334;2022-09-17T10:04:32;1.25;;;0.32;;
45392;SDS011;31129;44.810;10.334;2022-09-17T10:09:30;1.05;;;0.40;;
45392;SDS011;31129;44.810;10.334;2022-09-17T10:14:28;0.60;;;0.52;;
45392;SDS011;31129;44.810;10.334;2022-09-17T10:19:39;1.38;;;0.35;;
45392;SDS011;31129;44.810;10.334;2022-09-17T10:22:19;0.30;;;0.30;;
45392;SDS011;31129;44.810;10.334;2022-09-17T10:24:50;0.65;;;0.32;;
45392;SDS011;31129;44.810;10.334;2022-09-17T10:29:46;0.45;;;0.40;;
45392;SDS011;31129;44.810;10.334;2022-09-17T10:32:20;0.30;;;0.30;;
45392;SDS011;31129;44.810;10.334;2022-09-17T10:35:03;1.38;;;0.40;;
45392;SDS011;31129;44.810;10.334;2022-09-17T10:37:48;0.60;;;0.30;;
45392;SDS011;31129;44.810;10.334;2022-09-17T10:43:29;1.58;;;0.40;;
45392;SDS011;31129;44.810;10.334;2022-09-17T10:45:54;0.57;;;0.38;;
45392;SDS011;31129;44.810;10.334;2022-09-17T10:48:21;2.35;;;0.55;;
45392;SDS011;31129;44.810;10.334;2022-09-17T10:50:52;2.13;;;0.40;;
45392;SDS011;31129;44.810;10.334;2022-09-17T10:53:20;1.27;;;0.50;;
45392;SDS011;31129;44.810;10.334;2022-09-17T10:55:50;2.22;;;0.30;;
45392;SDS011;31129;44.810;10.334;2022-09-17T11:04:14;0.70;;;0.50;;
45392;SDS011;31129;44.810;10.334;2022-09-17T11:10:11;1.02;;;0.70;;
45392;SDS011;31129;44.810;10.334;2022-09-17T11:29:11;0.30;;;0.30;;
45392;SDS011;31129;44.810;10.334;2022-09-17T11:34:29;0.30;;;0.30;;
45392;SDS011;31129;44.810;10.334;2022-09-17T11:37:11;2.42;;;0.50;;
45392;SDS011;31129;44.810;10.334;2022-09-17T11:40:12;0.50;;;0.50;;
45392;SDS011;31129;44.810;10.334;2022-09-17T11:42:46;0.65;;;0.30;;
45392;SDS011;31129;44.810;10.334;2022-09-17T11:45:19;1.20;;;0.40;;
45392;SDS011;31129;44.810;10.334;2022-09-17T11:53:36;0.75;;;0.43;;
45392;SDS011;31129;44.810;10.334;2022-09-17T11:58:53;0.35;;;0.35;;
45392;SDS011;31129;44.810;10.334;2022-09-17T12:04:36;0.40;;;0.40;;
45392;SDS011;31129;44.810;10.334;2022-09-17T12:09:52;5.47;;;0.80;;
45392;SDS011;31129;44.810;10.334;2022-09-17T12:12:24;0.90;;;0.30;;
45392;SDS011;31129;44.810;10.334;2022-09-17T12:15:34;0.30;;;0.30;;
45392;SDS011;31129;44.810;10.334;2022-09-17T12:22:49;1.52;;;0.30;;
45392;SDS011;31129;44.810;10.334;2022-09-17T12:25:16;1.88;;;0.30;;
45392;SDS011;31129;44.810;10.334;2022-09-17T12:27:53;0.88;;;0.35;;
45392;SDS011;31129;44.810;10.334;2022-09-17T12:30:27;1.30;;;0.60;;
45392;SDS011;31129;44.810;10.334;2022-09-17T12:38:21;3.10;;;1.20;;
45392;SDS011;31129;44.810;10.334;2022-09-17T12:41:05;0.38;;;0.30;;
45392;SDS011;31129;44.810;10.334;2022-09-17T12:43:49;1.98;;;0.50;;
45392;SDS011;31129;44.810;10.334;2022-09-17T12:49:29;0.30;;;0.30;;
45392;SDS011;31129;44.810;10.334;2022-09-17T13:00:58;0.20;;;0.20;;
45392;SDS011;31129;44.810;10.334;2022-09-17T13:03:29;0.45;;;0.38;;
45392;SDS011;31129;44.810;10.334;2022-09-17T13:22:26;1.10;;;0.30;;
45392;SDS011;31129;44.810;10.334;2022-09-17T13:25:07;0.40;;;0.30;;
45392;SDS011;31129;44.810;10.334;2022-09-17T13:27:35;1.52;;;0.20;;
45392;SDS011;31129;44.810;10.334;2022-09-17T13:30:12;0.35;;;0.35;;
45392;SDS011;31129;44.810;10.334;2022-09-17T13:37:31;0.40;;;0.40;;
45392;SDS011;31129;44.810;10.334;2022-09-17T13:39:59;0.30;;;0.30;;
45392;SDS011;31129;44.810;10.334;2022-09-17T13:42:27;2.55;;;0.40;;
45392;SDS011;31129;44.810;10.334;2022-09-17T13:45:03;0.77;;;0.25;;
45392;SDS011;31129;44.810;10.334;2022-09-17T13:47:31;0.65;;;0.40;;
45392;SDS011;31129;44.810;10.334;2022-09-17T13:50:02;0.40;;;0.40;;
45392;SDS011;31129;44.810;10.334;2022-09-17T13:55:28;0.20;;;0.20;;
45392;SDS011;31129;44.810;10.334;2022-09-17T14:05:55;1.65;;;0.30;;
45392;SDS011;31129;44.810;10.334;2022-09-17T14:08:25;0.40;;;0.40;;
45392;SDS011;31129;44.810;10.334;2022-09-17T14:10:59;0.45;;;0.22;;
45392;SDS011;31129;44.810;10.334;2022-09-17T14:13:47;0.20;;;0.20;;
45392;SDS011;31129;44.810;10.334;2022-09-17T14:22:20;0.20;;;0.20;;
45392;SDS011;31129;44.810;10.334;2022-09-17T14:24:53;0.20;;;0.20;;
45392;SDS011;31129;44.810;10.334;2022-09-17T14:40:52;0.38;;;0.20;;
45392;SDS011;31129;44.810;10.334;2022-09-17T14:44:17;0.95;;;0.40;;
45392;SDS011;31129;44.810;10.334;2022-09-17T14:46:24;0.47;;;0.30;;
45392;SDS011;31129;44.810;10.334;2022-09-17T14:49:12;0.22;;;0.22;;
45392;SDS011;31129;44.810;10.334;2022-09-17T14:51:38;0.30;;;0.30;;
45392;SDS011;31129;44.810;10.334;2022-09-17T14:56:57;0.40;;;0.40;;
45392;SDS011;31129;44.810;10.334;2022-09-17T14:59:42;3.63;;;0.30;;
45392;SDS011;31129;44.810;10.334;2022-09-17T15:02:26;0.30;;;0.30;;
45392;SDS011;31129;44.810;10.334;2022-09-17T15:04:56;0.20;;;0.20;;
45392;SDS011;31129;44.810;10.334;2022-09-17T15:07:23;0.30;;;0.30;;
45392;SDS011;31129;44.810;10.334;2022-09-17T15:09:49;0.40;;;0.30;;
45392;SDS011;31129;44.810;10.334;2022-09-17T15:14:43;0.90;;;0.20;;
45392;SDS011;31129;44.810;10.334;2022-09-17T15:17:13;0.40;;;0.40;;
45392;SDS011;31129;44.810;10.334;2022-09-17T15:19:41;0.20;;;0.20;;
45392;SDS011;31129;44.810;10.334;2022-09-17T15:24:46;0.47;;;0.30;;
45392;SDS011;31129;44.810;10.334;2022-09-17T15:27:40;1.83;;;0.20;;
45392;SDS011;31129;44.810;10.334;2022-09-17T15:32:42;0.75;;;0.30;;
45392;SDS011;31129;44.810;10.334;2022-09-17T15:37:45;1.73;;;0.40;;
45392;SDS011;31129;44.810;10.334;2022-09-17T15:40:13;0.40;;;0.40;;
45392;SDS011;31129;44.810;10.334;2022-09-17T15:42:52;0.50;;;0.22;;
45392;SDS011;31129;44.810;10.334;2022-09-17T15:45:27;0.40;;;0.40;;
45392;SDS011;31129;44.810;10.334;2022-09-17T15:47:59;0.25;;;0.25;;
45392;SDS011;31129;44.810;10.334;2022-09-17T15:50:26;0.20;;;0.20;;
45392;SDS011;31129;44.810;10.334;2022-09-17T15:55:34;0.30;;;0.30;;
45392;SDS011;31129;44.810;10.334;2022-09-17T15:58:04;0.50;;;0.40;;
45392;SDS011;31129;44.810;10.334;2022-09-17T16:00:42;0.30;;;0.30;;
45392;SDS011;31129;44.810;10.334;2022-09-17T16:05:59;0.25;;;0.25;;
45392;SDS011;31129;44.810;10.334;2022-09-17T16:08:25;0.40;;;0.40;;
45392;SDS011;31129;44.810;10.334;2022-09-17T16:10:58;1.77;;;0.30;;
45392;SDS011;31129;44.810;10.334;2022-09-17T16:13:23;0.95;;;0.40;;
45392;SDS011;31129;44.810;10.334;2022-09-17T16:15:49;1.98;;;0.30;;
45392;SDS011;31129;44.810;10.334;2022-09-17T16:18:14;0.98;;;0.60;;
45392;SDS011;31129;44.810;10.334;2022-09-17T16:20:41;0.73;;;0.30;;
45392;SDS011;31129;44.810;10.334;2022-09-17T16:23:06;0.65;;;0.30;;
45392;SDS011;31129;44.810;10.334;2022-09-17T16:25:32;0.30;;;0.30;;
45392;SDS011;31129;44.810;10.334;2022-09-17T16:27:58;3.67;;;0.38;;
45392;SDS011;31129;44.810;10.334;2022-09-17T16:30:27;0.22;;;0.22;;
45392;SDS011;31129;44.810;10.334;2022-09-17T16:32:52;1.42;;;0.32;;
45392;SDS011;31129;44.810;10.334;2022-09-17T16:35:19;2.47;;;0.30;;
45392;SDS011;31129;44.810;10.334;2022-09-17T16:37:50;2.15;;;0.28;;
45392;SDS011;31129;44.810;10.334;2022-09-17T16:40:17;1.38;;;0.40;;
45392;SDS011;31129;44.810;10.334;2022-09-17T16:42:44;2.50;;;0.30;;
45392;SDS011;31129;44.810;10.334;2022-09-17T16:45:10;0.75;;;0.40;;
45392;SDS011;31129;44.810;10.334;2022-09-17T16:47:37;0.22;;;0.20;;
45392;SDS011;31129;44.810;10.334;2022-09-17T16:50:04;0.53;;;0.33;;
45392;SDS011;31129;44.810;10.334;2022-09-17T16:52:31;0.63;;;0.30;;
45392;SDS011;31129;44.810;10.334;2022-09-17T16:54:57;0.35;;;0.35;;
45392;SDS011;31129;44.810;10.334;2022-09-17T16:57:22;1.30;;;0.40;;
45392;SDS011;31129;44.810;10.334;2022-09-17T16:59:48;0.85;;;0.30;;
45392;SDS011;31129;44.810;10.334;2022-09-17T17:02:13;0.50;;;0.50;;
45392;SDS011;31129;44.810;10.334;2022-09-17T17:04:41;1.30;;;0.40;;
45392;SDS011;31129;44.810;10.334;2022-09-17T17:07:07;0.40;;;0.40;;
45392;SDS011;31129;44.810;10.334;2022-09-17T17:09:32;1.58;;;0.50;;
45392;SDS011;31129;44.810;10.334;2022-09-17T17:11:57;0.85;;;0.47;;
45392;SDS011;31129;44.810;10.334;2022-09-17T17:14:23;1.00;;;0.52;;
45392;SDS011;31129;44.810;10.334;2022-09-17T17:16:48;1.25;;;0.70;;
45392;SDS011;31129;44.810;10.334;2022-09-17T17:19:14;0.98;;;0.47;;
45392;SDS011;31129;44.810;10.334;2022-09-17T17:21:39;2.00;;;0.70;;
45392;SDS011;31129;44.810;10.334;2022-09-17T17:24:05;1.40;;;1.10;;
45392;SDS011;31129;44.810;10.334;2022-09-17T17:26:31;2.60;;;0.40;;
45392;SDS011;31129;44.810;10.334;2022-09-17T17:28:57;2.92;;;0.65;;
45392;SDS011;31129;44.810;10.334;2022-09-17T17:31:23;0.30;;;0.30;;
45392;SDS011;31129;44.810;10.334;2022-09-17T17:33:48;1.83;;;0.90;;
45392;SDS011;31129;44.810;10.334;2022-09-17T17:36:13;0.93;;;0.50;;
45392;SDS011;31129;44.810;10.334;2022-09-17T17:38:39;0.60;;;0.43;;
45392;SDS011;31129;44.810;10.334;2022-09-17T17:41:13;2.85;;;1.10;;
45392;SDS011;31129;44.810;10.334;2022-09-17T17:43:40;2.53;;;0.80;;
45392;SDS011;31129;44.810;10.334;2022-09-17T17:46:09;3.72;;;1.23;;
45392;SDS011;31129;44.810;10.334;2022-09-17T17:48:36;1.95;;;0.60;;
45392;SDS011;31129;44.810;10.334;2022-09-17T17:51:02;4.13;;;0.60;;
45392;SDS011;31129;44.810;10.334;2022-09-17T17:53:32;1.13;;;0.57;;
45392;SDS011;31129;44.810;10.334;2022-09-17T17:56:02;4.13;;;0.73;;
45392;SDS011;31129;44.810;10.334;2022-09-17T17:58:30;1.70;;;0.47;;
45392;SDS011;31129;44.810;10.334;2022-09-17T18:00:56;1.13;;;0.70;;
45392;SDS011;31129;44.810;10.334;2022-09-17T18:03:23;3.22;;;0.90;;
45392;SDS011;31129;44.810;10.334;2022-09-17T18:05:55;2.28;;;0.63;;
45392;SDS011;31129;44.810;10.334;2022-09-17T18:08:23;1.23;;;0.60;;
45392;SDS011;31129;44.810;10.334;2022-09-17T18:10:50;1.50;;;0.80;;
45392;SDS011;31129;44.810;10.334;2022-09-17T18:13:17;2.47;;;0.88;;
45392;SDS011;31129;44.810;10.334;2022-09-17T18:15:49;1.75;;;0.70;;
45392;SDS011;31129;44.810;10.334;2022-09-17T18:18:15;1.75;;;0.93;;
45392;SDS011;31129;44.810;10.334;2022-09-17T18:20:40;5.03;;;0.90;;
45392;SDS011;31129;44.810;10.334;2022-09-17T18:23:06;1.52;;;0.80;;
45392;SDS011;31129;44.810;10.334;2022-09-17T18:25:32;1.95;;;0.90;;
45392;SDS011;31129;44.810;10.334;2022-09-17T18:27:57;1.30;;;0.98;;
45392;SDS011;31129;44.810;10.334;2022-09-17T18:30:22;5.85;;;1.42;;
45392;SDS011;31129;44.810;10.334;2022-09-17T18:32:48;1.58;;;0.90;;